Time;durP1;ratioP1;P1;durP2;ratioP2;P2;SDS_P1;SDS_P2;PMS_P1;PMS_P2;Temp;Humidity;BMP_temperature;BMP_pressure;BME280_temperature;BME280_humidity;BME280_pressure;Samples;Min_cycle;Max_cycle;Signal;HPM_P1;HPM_P2
2022/03/14 00:00:07;;;;;;;68.00;30.90;;;;;;;;;;5070043;28;20016;-44
2022/03/14 00:02:34;;;;;;;73.53;31.05;;;;;;;;;;5069268;28;20024;-44
2022/03/14 00:05:03;;;;;;;70.72;31.38;;;;;;;;;;5069517;28;20032;-44
2022/03/14 00:07:30;;;;;;;73.10;32.33;;;;;;;;;;5070581;28;20019;-44
2022/03/14 00:09:57;;;;;;;69.13;31.27;;;;;;;;;;5069083;28;20074;-45
2022/03/14 00:12:25;;;;;;;70.20;32.40;;;;;;;;;;5069302;28;20043;-45
2022/03/14 00:14:56;;;;;;;73.38;34.30;;;;;;;;;;5069348;28;20139;-45
2022/03/14 00:17:24;;;;;;;60.17;29.60;;;;;;;;;;5094112;28;20031;-45
2022/03/14 00:19:50;;;;;;;52.03;27.88;;;;;;;;;;5093696;28;20384;-46
2022/03/14 00:22:18;;;;;;;56.33;28.38;;;;;;;;;;5114045;28;20030;-46
2022/03/14 00:24:44;;;;;;;60.78;30.17;;;;;;;;;;5114391;28;20028;-46
2022/03/14 00:27:10;;;;;;;55.15;28.20;;;;;;;;;;5114322;28;20024;-46
2022/03/14 00:29:36;;;;;;;59.63;30.17;;;;;;;;;;5114467;28;20065;-46
2022/03/14 00:32:02;;;;;;;59.28;29.23;;;;;;;;;;5114018;28;20406;-46
2022/03/14 00:34:29;;;;;;;53.90;28.90;;;;;;;;;;5114117;28;20425;-45
2022/03/14 00:36:55;;;;;;;57.72;30.85;;;;;;;;;;5114129;28;20027;-45
2022/03/14 00:39:21;;;;;;;57.97;29.02;;;;;;;;;;5114112;28;20051;-44
2022/03/14 00:41:47;;;;;;;60.65;29.13;;;;;;;;;;5113945;28;20472;-44
2022/03/14 00:44:15;;;;;;;56.30;28.23;;;;;;;;;;5095641;28;20028;-45
2022/03/14 00:46:41;;;;;;;58.75;29.73;;;;;;;;;;5113958;28;20118;-45
2022/03/14 00:49:07;;;;;;;66.78;33.25;;;;;;;;;;5134062;27;20108;-45
2022/03/14 00:51:34;;;;;;;62.58;31.10;;;;;;;;;;5134500;27;20058;-45
2022/03/14 00:54:01;;;;;;;57.85;28.17;;;;;;;;;;5134204;27;20031;-44
2022/03/14 00:56:28;;;;;;;61.03;30.88;;;;;;;;;;5134491;28;20493;-44
2022/03/14 00:58:54;;;;;;;57.00;28.48;;;;;;;;;;5134293;28;20440;-44
2022/03/14 01:01:23;;;;;;;46.83;25.73;;;;;;;;;;5133850;27;20018;-45
2022/03/14 01:03:49;;;;;;;54.10;26.50;;;;;;;;;;5134204;28;20026;-45
2022/03/14 01:06:15;;;;;;;56.25;28.88;;;;;;;;;;5134202;28;20118;-44
2022/03/14 01:08:41;;;;;;;50.50;27.23;;;;;;;;;;5134407;28;20377;-45
2022/03/14 01:11:11;;;;;;;61.15;28.80;;;;;;;;;;5134105;28;20022;-45
2022/03/14 01:13:38;;;;;;;57.42;29.85;;;;;;;;;;5134114;28;20035;-46
2022/03/14 01:16:04;;;;;;;59.55;29.40;;;;;;;;;;5134247;28;20048;-45
2022/03/14 01:18:31;;;;;;;61.92;29.70;;;;;;;;;;5133843;28;20076;-45
2022/03/14 01:20:57;;;;;;;61.42;29.27;;;;;;;;;;5134300;28;20498;-45
2022/03/14 01:23:23;;;;;;;65.38;30.80;;;;;;;;;;5133954;28;20068;-46
2022/03/14 01:25:51;;;;;;;60.78;30.42;;;;;;;;;;5134191;28;20079;-45
2022/03/14 01:28:17;;;;;;;71.20;35.35;;;;;;;;;;5134189;28;20027;-48
2022/03/14 01:30:44;;;;;;;57.75;30.90;;;;;;;;;;5134035;28;20542;-46
2022/03/14 01:33:10;;;;;;;62.25;30.20;;;;;;;;;;5133963;28;20035;-46
2022/03/14 01:35:37;;;;;;;50.65;27.25;;;;;;;;;;5133997;28;20054;-46
2022/03/14 01:38:03;;;;;;;53.35;27.77;;;;;;;;;;5133973;28;20055;-45
2022/03/14 01:40:30;;;;;;;57.58;27.45;;;;;;;;;;5134093;28;20144;-45
2022/03/14 01:42:56;;;;;;;55.08;26.40;;;;;;;;;;5134078;28;20023;-45
2022/03/14 01:45:23;;;;;;;54.15;26.38;;;;;;;;;;5134163;28;20026;-45
2022/03/14 01:47:49;;;;;;;51.20;25.30;;;;;;;;;;5133676;28;20526;-44
2022/03/14 01:50:16;;;;;;;49.45;26.65;;;;;;;;;;5134268;28;20027;-45
2022/03/14 01:52:43;;;;;;;51.22;26.17;;;;;;;;;;5133572;28;20038;-45
2022/03/14 01:55:09;;;;;;;46.38;24.23;;;;;;;;;;5134054;28;20031;-46
2022/03/14 01:57:35;;;;;;;52.22;25.75;;;;;;;;;;5133814;28;20539;-47
2022/03/14 02:00:02;;;;;;;53.90;25.42;;;;;;;;;;5133779;28;20027;-46
2022/03/14 02:02:28;;;;;;;50.95;26.17;;;;;;;;;;5133804;28;20023;-45
2022/03/14 02:04:54;;;;;;;49.10;24.92;;;;;;;;;;5133683;28;20026;-45
2022/03/14 02:07:21;;;;;;;52.80;24.92;;;;;;;;;;5133881;28;20034;-46
2022/03/14 02:09:47;;;;;;;51.55;24.83;;;;;;;;;;5133609;28;20024;-47
2022/03/14 02:12:13;;;;;;;47.08;23.25;;;;;;;;;;5135062;27;20070;-46
2022/03/14 02:14:39;;;;;;;44.55;23.75;;;;;;;;;;5137371;27;20521;-45
2022/03/14 02:17:12;;;;;;;46.75;24.15;;;;;;;;;;5137213;27;20043;-45
2022/03/14 02:19:38;;;;;;;48.17;23.75;;;;;;;;;;5137014;27;20355;-45
2022/03/14 02:22:04;;;;;;;56.15;26.90;;;;;;;;;;5137139;27;20034;-46
2022/03/14 02:24:31;;;;;;;51.13;26.63;;;;;;;;;;5136993;27;20023;-45
2022/03/14 02:26:57;;;;;;;57.60;27.02;;;;;;;;;;5137144;27;20027;-48
2022/03/14 02:29:24;;;;;;;46.80;25.38;;;;;;;;;;5137047;27;20022;-45
2022/03/14 02:31:51;;;;;;;49.28;26.10;;;;;;;;;;5136986;27;20028;-46
2022/03/14 02:34:17;;;;;;;57.67;29.10;;;;;;;;;;5136949;27;20023;-48
2022/03/14 02:36:43;;;;;;;55.40;27.58;;;;;;;;;;5136848;27;20029;-46
2022/03/14 02:39:09;;;;;;;50.88;25.95;;;;;;;;;;5136872;27;20371;-47
2022/03/14 02:41:36;;;;;;;52.90;27.33;;;;;;;;;;5136968;27;20122;-47
2022/03/14 02:44:08;;;;;;;50.00;26.02;;;;;;;;;;5136613;27;20031;-45
2022/03/14 02:46:36;;;;;;;49.80;25.75;;;;;;;;;;5136604;27;20029;-46
2022/03/14 02:49:02;;;;;;;55.35;26.83;;;;;;;;;;5136416;27;20078;-46
2022/03/14 02:51:28;;;;;;;56.42;25.95;;;;;;;;;;5136558;27;20190;-46
2022/03/14 02:53:55;;;;;;;60.95;29.25;;;;;;;;;;5136695;27;20023;-45
2022/03/14 02:56:21;;;;;;;50.13;24.88;;;;;;;;;;5136335;27;20130;-45
2022/03/14 02:58:52;;;;;;;48.72;26.15;;;;;;;;;;5136398;27;20388;-45
2022/03/14 03:01:24;;;;;;;56.17;28.60;;;;;;;;;;5136506;27;20111;-45
2022/03/14 03:03:50;;;;;;;60.05;29.10;;;;;;;;;;5136207;27;20027;-46
2022/03/14 03:06:22;;;;;;;67.57;30.05;;;;;;;;;;5136461;27;20023;-45
2022/03/14 03:08:49;;;;;;;69.55;32.78;;;;;;;;;;5136310;27;20087;-47
2022/03/14 03:11:15;;;;;;;62.63;31.35;;;;;;;;;;5136254;27;20535;-46
2022/03/14 03:13:42;;;;;;;61.88;31.52;;;;;;;;;;5136018;27;20035;-46
2022/03/14 03:16:15;;;;;;;64.68;30.23;;;;;;;;;;5136000;27;20035;-46
2022/03/14 03:18:41;;;;;;;89.40;42.50;;;;;;;;;;5136039;27;20375;-45
2022/03/14 03:21:12;;;;;;;84.85;39.90;;;;;;;;;;5135966;27;20031;-45
2022/03/14 03:23:39;;;;;;;68.97;33.92;;;;;;;;;;5135682;27;20021;-45
2022/03/14 03:26:06;;;;;;;58.20;29.33;;;;;;;;;;5135948;27;20062;-46
2022/03/14 03:28:37;;;;;;;68.43;32.45;;;;;;;;;;5135829;27;20103;-47
2022/03/14 03:31:07;;;;;;;71.13;33.00;;;;;;;;;;5135605;27;20102;-46
2022/03/14 03:33:34;;;;;;;60.80;30.38;;;;;;;;;;5129909;27;20482;-45
2022/03/14 03:36:00;;;;;;;63.08;32.05;;;;;;;;;;5114894;28;20469;-47
2022/03/14 03:38:26;;;;;;;59.38;30.17;;;;;;;;;;5114787;28;20110;-47
2022/03/14 03:40:57;;;;;;;69.63;32.55;;;;;;;;;;5114861;28;20046;-46
2022/03/14 03:43:23;;;;;;;57.35;29.92;;;;;;;;;;5115002;28;20024;-47
2022/03/14 03:45:49;;;;;;;67.72;32.33;;;;;;;;;;5114844;28;20379;-47
2022/03/14 03:48:16;;;;;;;110.93;52.25;;;;;;;;;;5114559;28;20089;-45
2022/03/14 03:50:42;;;;;;;69.60;35.33;;;;;;;;;;5114548;28;20039;-45
2022/03/14 03:53:08;;;;;;;65.60;32.85;;;;;;;;;;5114737;28;20391;-45
2022/03/14 03:55:34;;;;;;;66.30;31.65;;;;;;;;;;5114422;28;20027;-45
2022/03/14 03:58:00;;;;;;;72.32;33.88;;;;;;;;;;5114462;28;20395;-45
2022/03/14 04:00:29;;;;;;;69.13;32.60;;;;;;;;;;5114097;28;20012;-45
2022/03/14 04:02:55;;;;;;;73.93;33.88;;;;;;;;;;5114630;28;20027;-45
2022/03/14 04:05:22;;;;;;;63.53;31.70;;;;;;;;;;5114420;28;20387;-44
2022/03/14 04:07:48;;;;;;;72.15;34.55;;;;;;;;;;5114166;28;20111;-44
2022/03/14 04:10:15;;;;;;;74.63;36.10;;;;;;;;;;5114035;28;20023;-44
2022/03/14 04:12:44;;;;;;;69.15;32.13;;;;;;;;;;5114149;28;20130;-44
2022/03/14 04:15:10;;;;;;;72.63;32.10;;;;;;;;;;5114082;28;20055;-44
2022/03/14 04:17:42;;;;;;;66.60;32.20;;;;;;;;;;5114361;28;20046;-43
2022/03/14 04:20:10;;;;;;;69.97;31.90;;;;;;;;;;5114022;28;20080;-47
2022/03/14 04:22:37;;;;;;;57.42;29.35;;;;;;;;;;5113905;28;20072;-47
2022/03/14 04:25:04;;;;;;;57.88;29.20;;;;;;;;;;5114212;28;20027;-45
2022/03/14 04:27:30;;;;;;;59.33;28.50;;;;;;;;;;5114209;28;20031;-47
2022/03/14 04:29:57;;;;;;;53.33;26.00;;;;;;;;;;5113038;28;20385;-46
2022/03/14 04:32:23;;;;;;;55.97;27.17;;;;;;;;;;5113217;28;20040;-45
2022/03/14 04:34:50;;;;;;;56.00;28.15;;;;;;;;;;5113670;28;20036;-45
2022/03/14 04:37:16;;;;;;;62.55;27.83;;;;;;;;;;5114196;28;20114;-46
2022/03/14 04:39:43;;;;;;;65.03;27.67;;;;;;;;;;5113219;28;20019;-43
2022/03/14 04:42:09;;;;;;;51.60;26.80;;;;;;;;;;5112230;28;20030;-44
2022/03/14 04:44:38;;;;;;;54.65;27.35;;;;;;;;;;5111668;28;20444;-46
2022/03/14 04:47:05;;;;;;;62.63;27.52;;;;;;;;;;5111937;28;20055;-46
2022/03/14 04:49:31;;;;;;;58.30;27.95;;;;;;;;;;5112423;28;20024;-47
2022/03/14 04:51:57;;;;;;;61.65;27.75;;;;;;;;;;5109531;28;20043;-48
2022/03/14 04:54:23;;;;;;;69.07;29.08;;;;;;;;;;5112173;28;20015;-47
2022/03/14 04:56:54;;;;;;;74.40;30.52;;;;;;;;;;5112510;28;20008;-46
2022/03/14 04:59:21;;;;;;;69.53;32.17;;;;;;;;;;5113209;28;20053;-43
2022/03/14 05:01:50;;;;;;;60.90;29.35;;;;;;;;;;5112999;28;20027;-44
2022/03/14 05:04:16;;;;;;;62.58;31.00;;;;;;;;;;5113111;28;20020;-46
2022/03/14 05:06:42;;;;;;;65.15;31.08;;;;;;;;;;5113691;28;20471;-46
2022/03/14 05:09:08;;;;;;;62.70;29.85;;;;;;;;;;5113485;28;20023;-47
2022/03/14 05:11:34;;;;;;;66.82;31.15;;;;;;;;;;5095009;28;20525;-46
2022/03/14 05:14:01;;;;;;;60.40;29.10;;;;;;;;;;5113361;28;20093;-47
2022/03/14 05:16:30;;;;;;;71.07;35.42;;;;;;;;;;5113689;28;20019;-44
2022/03/14 05:18:56;;;;;;;59.58;31.00;;;;;;;;;;5113452;28;20092;-45
2022/03/14 05:21:22;;;;;;;66.07;33.28;;;;;;;;;;5113602;28;20104;-45
2022/03/14 05:23:48;;;;;;;65.78;31.25;;;;;;;;;;5113450;28;20032;-44
2022/03/14 05:26:14;;;;;;;61.88;30.02;;;;;;;;;;5113495;28;20102;-46
2022/03/14 05:28:41;;;;;;;63.05;29.65;;;;;;;;;;5113401;28;20046;-45
2022/03/14 05:31:09;;;;;;;64.15;29.98;;;;;;;;;;5113802;28;20436;-45
2022/03/14 05:33:35;;;;;;;64.22;30.35;;;;;;;;;;5113582;28;20043;-45
2022/03/14 05:36:01;;;;;;;57.28;29.17;;;;;;;;;;5113335;28;20471;-46
2022/03/14 05:38:28;;;;;;;53.92;28.83;;;;;;;;;;5113398;28;20038;-46
2022/03/14 05:40:56;;;;;;;63.42;30.05;;;;;;;;;;5113276;28;20498;-45
2022/03/14 05:43:26;;;;;;;64.20;30.38;;;;;;;;;;5113257;28;20058;-44
2022/03/14 05:45:53;;;;;;;58.95;29.75;;;;;;;;;;5096169;28;20024;-45
2022/03/14 05:48:20;;;;;;;48.78;26.00;;;;;;;;;;5116227;28;20043;-46
2022/03/14 05:50:48;;;;;;;57.25;28.42;;;;;;;;;;5117115;28;20084;-46
2022/03/14 05:53:14;;;;;;;65.60;33.03;;;;;;;;;;5116698;28;20055;-45
2022/03/14 05:55:40;;;;;;;61.53;28.83;;;;;;;;;;5116200;28;20506;-45
2022/03/14 05:58:06;;;;;;;54.88;26.88;;;;;;;;;;5117019;28;20077;-45
2022/03/14 06:00:33;;;;;;;63.95;32.35;;;;;;;;;;5116935;28;20016;-46
2022/03/14 06:02:59;;;;;;;89.78;42.63;;;;;;;;;;5117074;28;20391;-46
2022/03/14 06:05:28;;;;;;;51.92;26.10;;;;;;;;;;5116926;28;20019;-45
2022/03/14 06:07:54;;;;;;;57.78;28.17;;;;;;;;;;5116873;28;20032;-46
2022/03/14 06:10:20;;;;;;;61.45;31.85;;;;;;;;;;5116927;28;20023;-45
2022/03/14 06:12:46;;;;;;;59.28;30.55;;;;;;;;;;5116501;28;20122;-47
2022/03/14 06:15:16;;;;;;;62.63;28.90;;;;;;;;;;5116683;28;20055;-46
2022/03/14 06:17:42;;;;;;;59.95;30.15;;;;;;;;;;5116682;28;20028;-45
2022/03/14 06:20:12;;;;;;;61.92;26.88;;;;;;;;;;5116670;28;20097;-46
2022/03/14 06:22:42;;;;;;;62.92;27.67;;;;;;;;;;5116910;28;20023;-45
2022/03/14 06:25:08;;;;;;;70.95;29.50;;;;;;;;;;5098136;28;20445;-45
2022/03/14 06:27:35;;;;;;;51.92;26.35;;;;;;;;;;5116658;28;20081;-45
2022/03/14 06:30:02;;;;;;;46.03;25.83;;;;;;;;;;5098134;28;20031;-46
2022/03/14 06:32:36;;;;;;;44.58;23.88;;;;;;;;;;5116422;28;20024;-45
2022/03/14 06:35:05;;;;;;;42.45;22.27;;;;;;;;;;5116619;28;20024;-47
2022/03/14 06:37:38;;;;;;;41.50;21.25;;;;;;;;;;5116721;28;20023;-45
2022/03/14 06:40:05;;;;;;;42.63;21.98;;;;;;;;;;5116065;28;20098;-44
2022/03/14 06:42:31;;;;;;;37.15;19.88;;;;;;;;;;5116598;28;20459;-45
2022/03/14 06:45:02;;;;;;;39.83;21.77;;;;;;;;;;5116024;28;20077;-45
2022/03/14 06:47:28;;;;;;;37.67;19.73;;;;;;;;;;5116036;28;20043;-45
2022/03/14 06:49:54;;;;;;;37.50;19.65;;;;;;;;;;5116282;28;20044;-44
2022/03/14 06:52:20;;;;;;;35.53;18.95;;;;;;;;;;5115847;28;20019;-45
2022/03/14 06:54:46;;;;;;;40.08;20.77;;;;;;;;;;5115731;28;20107;-45
2022/03/14 06:57:17;;;;;;;34.13;19.13;;;;;;;;;;5116132;28;20378;-45
2022/03/14 06:59:45;;;;;;;36.80;20.83;;;;;;;;;;5115623;28;20459;-52
2022/03/14 07:02:11;;;;;;;33.22;19.15;;;;;;;;;;5115719;28;20032;-45
2022/03/14 07:04:40;;;;;;;33.40;20.85;;;;;;;;;;5115847;28;20019;-46
2022/03/14 07:07:07;;;;;;;33.92;18.77;;;;;;;;;;5115638;28;20478;-46
2022/03/14 07:09:35;;;;;;;36.90;19.58;;;;;;;;;;5116014;28;20023;-45
2022/03/14 07:12:01;;;;;;;34.75;19.42;;;;;;;;;;5097163;28;20024;-48
2022/03/14 07:14:28;;;;;;;33.20;18.23;;;;;;;;;;5115304;28;20396;-46
2022/03/14 07:16:54;;;;;;;34.65;18.13;;;;;;;;;;5115545;28;20031;-46
2022/03/14 07:19:20;;;;;;;40.05;21.92;;;;;;;;;;5097221;28;20081;-46
2022/03/14 07:21:46;;;;;;;40.35;20.92;;;;;;;;;;5115407;28;20051;-48
2022/03/14 07:24:12;;;;;;;44.40;23.77;;;;;;;;;;5115168;28;20030;-47
2022/03/14 07:26:38;;;;;;;50.00;19.80;;;;;;;;;;5115373;28;20028;-45
2022/03/14 07:29:04;;;;;;;33.35;18.65;;;;;;;;;;5115447;28;20024;-45
2022/03/14 07:31:30;;;;;;;39.85;20.50;;;;;;;;;;5115199;28;20028;-47
2022/03/14 07:33:56;;;;;;;52.40;21.83;;;;;;;;;;5115070;28;20032;-47
2022/03/14 07:36:23;;;;;;;32.38;16.98;;;;;;;;;;5114954;28;20243;-45
2022/03/14 07:38:49;;;;;;;36.63;17.38;;;;;;;;;;5114891;28;20031;-45
2022/03/14 07:41:15;;;;;;;28.95;17.30;;;;;;;;;;5115160;28;20585;-44
2022/03/14 07:43:41;;;;;;;31.25;16.17;;;;;;;;;;5114909;28;20034;-45
2022/03/14 07:46:07;;;;;;;33.20;17.25;;;;;;;;;;5114820;28;20020;-45
2022/03/14 07:48:34;;;;;;;28.88;14.95;;;;;;;;;;5114641;28;20082;-45
2022/03/14 07:51:06;;;;;;;28.58;15.80;;;;;;;;;;5114876;28;20107;-51
2022/03/14 07:53:32;;;;;;;;;;;;;;;;;;5115013;28;20178;-42
2022/03/14 07:55:58;;;;;;;29.83;13.98;;;;;;;;;;5114767;28;19920;-45
2022/03/14 07:58:24;;;;;;;31.63;16.63;;;;;;;;;;5096351;28;20035;-45
2022/03/14 08:00:50;;;;;;;27.20;15.57;;;;;;;;;;5114933;28;20510;-45
2022/03/14 08:03:18;;;;;;;27.20;15.07;;;;;;;;;;5114664;28;20026;-45
2022/03/14 08:05:46;;;;;;;30.90;15.60;;;;;;;;;;5114844;28;20372;-47
2022/03/14 08:08:15;;;;;;;26.40;15.43;;;;;;;;;;5096189;28;20447;-46
2022/03/14 08:10:41;;;;;;;27.67;15.05;;;;;;;;;;5113523;28;20048;-44
2022/03/14 08:13:07;;;;;;;28.88;15.60;;;;;;;;;;5114279;28;20039;-46
2022/03/14 08:15:38;;;;;;;28.55;14.20;;;;;;;;;;5114255;28;20012;-46
2022/03/14 08:18:05;;;;;;;30.42;15.07;;;;;;;;;;5114272;28;20023;-46
2022/03/14 08:20:32;;;;;;;26.85;15.48;;;;;;;;;;5114210;28;20050;-45
2022/03/14 08:22:59;;;;;;;29.05;15.38;;;;;;;;;;5114159;28;20023;-45
2022/03/14 08:25:26;;;;;;;26.10;14.48;;;;;;;;;;5114120;28;20016;-46
2022/03/14 08:27:52;;;;;;;23.52;14.15;;;;;;;;;;5114272;28;20020;-43
2022/03/14 08:30:21;;;;;;;24.48;14.20;;;;;;;;;;5114407;28;20032;-45
2022/03/14 08:32:47;;;;;;;22.02;12.85;;;;;;;;;;5114106;28;20031;-46
2022/03/14 08:35:19;;;;;;;24.52;13.32;;;;;;;;;;5113949;28;20023;-46
2022/03/14 08:37:45;;;;;;;;;;;;;;;;;;5114217;28;20027;-43
2022/03/14 08:40:13;;;;;;;24.13;13.20;;;;;;;;;;5113800;28;20336;-44
2022/03/14 08:42:40;;;;;;;22.38;12.75;;;;;;;;;;5114208;28;20026;-45
2022/03/14 08:45:07;;;;;;;19.35;11.20;;;;;;;;;;5114073;28;20468;-46
2022/03/14 08:47:34;;;;;;;20.58;12.60;;;;;;;;;;5113749;28;20043;-45
2022/03/14 08:50:02;;;;;;;19.17;11.30;;;;;;;;;;5113996;28;20085;-46
2022/03/14 08:52:28;;;;;;;19.30;11.50;;;;;;;;;;5113684;28;20072;-46
2022/03/14 08:54:55;;;;;;;28.42;11.27;;;;;;;;;;5113639;28;20435;-45
2022/03/14 08:57:21;;;;;;;22.17;12.68;;;;;;;;;;5113669;28;20027;-45
2022/03/14 08:59:47;;;;;;;25.27;13.82;;;;;;;;;;5113853;28;20070;-45
2022/03/14 09:02:13;;;;;;;21.30;11.80;;;;;;;;;;5113782;28;20484;-47
2022/03/14 09:04:39;;;;;;;18.45;10.13;;;;;;;;;;5113623;28;20051;-46
2022/03/14 09:07:06;;;;;;;18.30;10.80;;;;;;;;;;5113467;28;20027;-43
2022/03/14 09:09:32;;;;;;;21.58;10.43;;;;;;;;;;5113445;28;20106;-45
2022/03/14 09:11:58;;;;;;;27.00;15.02;;;;;;;;;;5113722;28;20066;-45
2022/03/14 09:14:25;;;;;;;22.05;11.85;;;;;;;;;;5113737;28;20036;-45
2022/03/14 09:16:51;;;;;;;26.13;14.00;;;;;;;;;;5113737;28;20030;-45
2022/03/14 09:19:17;;;;;;;29.00;12.10;;;;;;;;;;5113486;28;20023;-45
2022/03/14 09:21:44;;;;;;;20.02;10.10;;;;;;;;;;5115873;28;20027;-45
2022/03/14 09:24:10;;;;;;;20.65;10.88;;;;;;;;;;5117517;28;20020;-45
2022/03/14 09:26:37;;;;;;;21.75;11.57;;;;;;;;;;5117755;28;20023;-43
2022/03/14 09:29:04;;;;;;;18.52;11.43;;;;;;;;;;5117523;28;20012;-43
2022/03/14 09:31:33;;;;;;;22.77;13.85;;;;;;;;;;5117530;28;20160;-44
2022/03/14 09:34:00;;;;;;;20.98;12.30;;;;;;;;;;5117424;28;20032;-45
2022/03/14 09:36:26;;;;;;;23.63;12.70;;;;;;;;;;5117576;28;20103;-45
2022/03/14 09:38:52;;;;;;;16.08;10.10;;;;;;;;;;5117569;28;20024;-44
2022/03/14 09:41:21;;;;;;;20.42;12.23;;;;;;;;;;5117352;28;20024;-44
2022/03/14 09:43:51;;;;;;;21.42;12.00;;;;;;;;;;5117478;28;20026;-45
2022/03/14 09:46:19;;;;;;;22.20;11.40;;;;;;;;;;5117369;28;20536;-45
2022/03/14 09:48:52;;;;;;;17.50;10.55;;;;;;;;;;5117135;28;20487;-44
2022/03/14 09:51:18;;;;;;;17.45;11.18;;;;;;;;;;5117309;28;20368;-43
2022/03/14 09:53:45;;;;;;;19.75;11.25;;;;;;;;;;5117241;28;20115;-43
2022/03/14 09:56:11;;;;;;;17.20;11.60;;;;;;;;;;5116995;28;20031;-43
2022/03/14 09:58:38;;;;;;;20.38;12.10;;;;;;;;;;5116967;28;20020;-45
2022/03/14 10:01:05;;;;;;;15.32;10.35;;;;;;;;;;5116997;28;20136;-45
2022/03/14 10:03:31;;;;;;;22.67;10.75;;;;;;;;;;5116771;28;20032;-46
2022/03/14 10:05:57;;;;;;;18.25;10.20;;;;;;;;;;5116843;28;20118;-43
2022/03/14 10:08:24;;;;;;;19.52;11.70;;;;;;;;;;5116749;28;20584;-46
2022/03/14 10:10:50;;;;;;;28.77;11.93;;;;;;;;;;5116681;28;20027;-45
2022/03/14 10:13:16;;;;;;;20.20;12.57;;;;;;;;;;5116650;28;20031;-44
2022/03/14 10:15:43;;;;;;;18.20;10.43;;;;;;;;;;5116483;28;20035;-43
2022/03/14 10:18:17;;;;;;;17.02;9.30;;;;;;;;;;5116673;28;20023;-44
2022/03/14 10:20:56;;;;;;;15.70;10.32;;;;;;;;;;5098584;28;20506;-46
2022/03/14 10:23:42;;;;;;;15.27;9.63;;;;;;;;;;5116791;28;20030;-47
2022/03/14 10:26:11;;;;;;;17.25;9.30;;;;;;;;;;5116490;28;20027;-45
2022/03/14 10:28:38;;;;;;;18.00;10.15;;;;;;;;;;5116665;28;20102;-44
2022/03/14 10:31:05;;;;;;;15.35;9.10;;;;;;;;;;5116414;28;20020;-44
2022/03/14 10:33:32;;;;;;;16.90;11.65;;;;;;;;;;5097161;28;20035;-44
2022/03/14 10:35:58;;;;;;;16.92;9.73;;;;;;;;;;5116507;28;20023;-45
2022/03/14 10:38:26;;;;;;;17.02;9.40;;;;;;;;;;5116545;28;20111;-46
2022/03/14 10:40:53;;;;;;;13.80;8.55;;;;;;;;;;5116230;28;20463;-45
2022/03/14 10:43:27;;;;;;;19.75;9.38;;;;;;;;;;5116144;28;20055;-46
2022/03/14 10:45:54;;;;;;;15.77;8.95;;;;;;;;;;5116087;28;20015;-46
2022/03/14 10:48:33;;;;;;;16.90;10.27;;;;;;;;;;5115788;28;20564;-45
2022/03/14 10:51:04;;;;;;;12.18;8.25;;;;;;;;;;5116463;28;20027;-46
2022/03/14 10:53:30;;;;;;;15.18;8.88;;;;;;;;;;5115986;28;20497;-45
2022/03/14 10:56:00;;;;;;;17.27;10.27;;;;;;;;;;5115903;28;20030;-46
2022/03/14 10:58:30;;;;;;;17.17;10.02;;;;;;;;;;5115776;28;20023;-46
2022/03/14 11:01:07;;;;;;;19.73;9.98;;;;;;;;;;5115857;28;20024;-46
2022/03/14 11:03:34;;;;;;;13.48;7.28;;;;;;;;;;5115883;28;20119;-47
2022/03/14 11:06:03;;;;;;;13.63;8.43;;;;;;;;;;5115881;28;20065;-44
2022/03/14 11:08:31;;;;;;;11.95;7.72;;;;;;;;;;5115913;28;20024;-46
2022/03/14 11:10:58;;;;;;;12.65;7.75;;;;;;;;;;5115519;28;20475;-46
2022/03/14 11:13:24;;;;;;;15.88;8.38;;;;;;;;;;5115215;28;20024;-44
2022/03/14 11:15:50;;;;;;;23.40;11.52;;;;;;;;;;5115595;28;20024;-46
2022/03/14 11:18:18;;;;;;;25.42;9.50;;;;;;;;;;5115674;28;20024;-48
2022/03/14 11:20:44;;;;;;;16.58;10.52;;;;;;;;;;5115602;28;20028;-46
2022/03/14 11:23:12;;;;;;;10.90;7.18;;;;;;;;;;5115618;28;20019;-46
2022/03/14 11:25:39;;;;;;;15.00;7.30;;;;;;;;;;5115309;28;20062;-45
2022/03/14 11:28:06;;;;;;;10.23;7.07;;;;;;;;;;5115163;28;20028;-46
2022/03/14 11:30:37;;;;;;;11.32;5.55;;;;;;;;;;5115512;28;20494;-45
2022/03/14 11:33:03;;;;;;;13.95;6.80;;;;;;;;;;5115106;28;20036;-46
2022/03/14 11:35:30;;;;;;;11.13;7.03;;;;;;;;;;5115383;28;20051;-45
2022/03/14 11:37:57;;;;;;;14.82;7.38;;;;;;;;;;5115377;28;20047;-46
2022/03/14 11:40:23;;;;;;;14.10;6.85;;;;;;;;;;5115439;28;20023;-47
2022/03/14 11:42:49;;;;;;;12.45;7.25;;;;;;;;;;5114880;28;20028;-45
2022/03/14 11:45:16;;;;;;;21.27;7.97;;;;;;;;;;5115259;28;20032;-46
2022/03/14 11:47:42;;;;;;;11.70;7.82;;;;;;;;;;5114797;28;20051;-46
2022/03/14 11:50:09;;;;;;;12.98;7.25;;;;;;;;;;5115021;28;20081;-44
2022/03/14 11:52:39;;;;;;;16.10;9.30;;;;;;;;;;5115044;28;20470;-47
2022/03/14 11:55:28;;;;;;;10.35;6.50;;;;;;;;;;5114870;28;20065;-46
2022/03/14 11:57:55;;;;;;;21.05;13.02;;;;;;;;;;5115033;28;20367;-46
2022/03/14 12:00:27;;;;;;;25.77;15.57;;;;;;;;;;5114785;28;20023;-45
2022/03/14 12:02:54;;;;;;;14.48;7.47;;;;;;;;;;5114801;28;20020;-46
2022/03/14 12:05:43;;;;;;;16.55;8.90;;;;;;;;;;5114417;28;20024;-45
2022/03/14 12:08:15;;;;;;;13.20;6.95;;;;;;;;;;5104147;28;20039;-45
2022/03/14 12:10:43;;;;;;;27.40;16.08;;;;;;;;;;5114603;28;20103;-46
2022/03/14 12:13:09;;;;;;;15.15;9.52;;;;;;;;;;5114527;28;20063;-46
2022/03/14 12:15:46;;;;;;;11.45;6.47;;;;;;;;;;5114782;28;20023;-46
2022/03/14 12:18:28;;;;;;;14.77;9.70;;;;;;;;;;5114826;28;20131;-43
2022/03/14 12:21:04;;;;;;;11.75;6.18;;;;;;;;;;5114162;28;20055;-45
2022/03/14 12:23:32;;;;;;;9.15;6.00;;;;;;;;;;5114263;28;20015;-46
2022/03/14 12:25:58;;;;;;;9.43;6.03;;;;;;;;;;5114109;28;20023;-45
2022/03/14 12:28:25;;;;;;;10.98;5.95;;;;;;;;;;5114271;28;20471;-45
2022/03/14 12:30:51;;;;;;;9.75;5.45;;;;;;;;;;5114126;28;20030;-46
2022/03/14 12:33:36;;;;;;;7.47;4.82;;;;;;;;;;5114296;28;20104;-44
2022/03/14 12:36:24;;;;;;;11.05;5.32;;;;;;;;;;5114481;28;20494;-44
2022/03/14 12:39:09;;;;;;;8.60;4.65;;;;;;;;;;5114144;28;20523;-45
2022/03/14 12:41:41;;;;;;;8.43;5.25;;;;;;;;;;5113937;28;20019;-44
2022/03/14 12:44:16;;;;;;;6.80;4.60;;;;;;;;;;5114160;28;20031;-44
2022/03/14 12:46:46;;;;;;;11.40;4.70;;;;;;;;;;5114111;28;20050;-46
2022/03/14 12:49:12;;;;;;;6.85;4.70;;;;;;;;;;5113742;28;20480;-46
2022/03/14 12:51:39;;;;;;;8.45;5.20;;;;;;;;;;5114062;28;20055;-46
2022/03/14 12:54:09;;;;;;;75.80;42.20;;;;;;;;;;5113750;28;20119;-45
2022/03/14 12:56:38;;;;;;;16.65;9.27;;;;;;;;;;5113580;28;20379;-46
2022/03/14 12:59:09;;;;;;;8.02;4.43;;;;;;;;;;5113773;28;20015;-46
2022/03/14 13:01:40;;;;;;;7.13;4.28;;;;;;;;;;5113877;28;20534;-46
2022/03/14 13:04:07;;;;;;;;;;;;;;;;;;5114149;28;20039;-43
2022/03/14 13:06:38;;;;;;;7.85;4.40;;;;;;;;;;5113848;28;19907;-44
2022/03/14 13:09:05;;;;;;;7.80;5.45;;;;;;;;;;5113749;28;20020;-46
2022/03/14 13:11:43;;;;;;;12.25;4.95;;;;;;;;;;5113754;28;20102;-46
2022/03/14 13:14:11;;;;;;;10.20;5.18;;;;;;;;;;5113774;28;20036;-46
2022/03/14 13:16:39;;;;;;;20.08;5.07;;;;;;;;;;5113819;28;20024;-45
2022/03/14 13:19:14;;;;;;;5.75;4.38;;;;;;;;;;5113549;28;20467;-45
2022/03/14 13:21:41;;;;;;;9.55;5.78;;;;;;;;;;5113496;28;20106;-46
2022/03/14 13:24:07;;;;;;;6.93;4.82;;;;;;;;;;5113508;28;20355;-46
2022/03/14 13:26:34;;;;;;;16.70;7.95;;;;;;;;;;5113570;28;20069;-46
2022/03/14 13:29:04;;;;;;;9.43;5.55;;;;;;;;;;5113273;28;20503;-44
2022/03/14 13:31:34;;;;;;;10.43;5.97;;;;;;;;;;5113653;28;20023;-46
2022/03/14 13:34:02;;;;;;;11.85;6.05;;;;;;;;;;5113431;28;20387;-44
2022/03/14 13:36:28;;;;;;;12.25;5.00;;;;;;;;;;5113467;28;20024;-46
2022/03/14 13:38:55;;;;;;;13.70;6.85;;;;;;;;;;5113815;28;20149;-45
2022/03/14 13:41:26;;;;;;;8.00;5.50;;;;;;;;;;5113364;28;20328;-45
2022/03/14 13:43:54;;;;;;;7.95;5.13;;;;;;;;;;5113491;28;20016;-45
2022/03/14 13:46:30;;;;;;;8.45;5.05;;;;;;;;;;5095285;28;20027;-45
2022/03/14 13:48:57;;;;;;;8.07;4.45;;;;;;;;;;5113228;28;20056;-45
2022/03/14 13:51:27;;;;;;;8.00;4.85;;;;;;;;;;5113524;28;20034;-45
2022/03/14 13:53:54;;;;;;;9.25;4.43;;;;;;;;;;5113355;28;20385;-45
2022/03/14 13:56:20;;;;;;;9.60;4.88;;;;;;;;;;5113328;28;20024;-44
2022/03/14 13:58:55;;;;;;;8.65;4.68;;;;;;;;;;5113338;28;20031;-44
2022/03/14 14:01:39;;;;;;;7.95;4.35;;;;;;;;;;5113165;28;20111;-46
2022/03/14 14:04:12;;;;;;;9.75;4.40;;;;;;;;;;5113183;28;20019;-45
2022/03/14 14:06:50;;;;;;;11.15;5.93;;;;;;;;;;5113549;28;20046;-44
2022/03/14 14:09:17;;;;;;;7.75;5.38;;;;;;;;;;5116721;28;20019;-43
2022/03/14 14:11:55;;;;;;;8.43;4.78;;;;;;;;;;5116640;28;20034;-44
2022/03/14 14:14:25;;;;;;;7.35;4.95;;;;;;;;;;5098073;28;20039;-44
2022/03/14 14:16:52;;;;;;;11.13;5.20;;;;;;;;;;5116857;28;20023;-44
2022/03/14 14:19:22;;;;;;;6.43;4.47;;;;;;;;;;5116724;28;20040;-45
2022/03/14 14:21:55;;;;;;;14.25;4.55;;;;;;;;;;5116660;28;20376;-46
2022/03/14 14:24:25;;;;;;;7.68;4.35;;;;;;;;;;5116707;28;20579;-43
2022/03/14 14:26:51;;;;;;;7.70;4.70;;;;;;;;;;5116538;28;20114;-45